createdAt,value
2023-02-24T00:01:42.000Z,100677.94
2023-02-24T00:04:13.128Z,100674.84
2023-02-24T00:06:51.999Z,100662.56
2023-02-24T00:09:22.377Z,100672.69
2023-02-24T00:11:55.776Z,100665.34
2023-02-24T00:20:21.565Z,100662.19
2023-02-24T00:25:35.410Z,100651.38
2023-02-24T00:28:03.216Z,100647.59
2023-02-24T00:30:32.823Z,100661.94
2023-02-24T00:33:04.092Z,100653.25
2023-02-24T00:35:31.998Z,100645.31
2023-02-24T00:38:01.103Z,100639.19
2023-02-24T00:40:30.432Z,100638.91
2023-02-24T00:42:58.040Z,100632.53
2023-02-24T00:45:25.549Z,100631.97
2023-02-24T00:47:53.104Z,100620.84
2023-02-24T00:50:24.736Z,100628.59
2023-02-24T00:52:55.259Z,100620.22
2023-02-24T00:55:24.361Z,100615.53
2023-02-24T00:57:54.635Z,100614.22
2023-02-24T01:00:23.385Z,100609.25
2023-02-24T01:02:50.891Z,100607.91
2023-02-24T01:05:18.380Z,100604.50
2023-02-24T01:07:46.038Z,100606.06
2023-02-24T01:10:13.495Z,100601.47
2023-02-24T01:12:50.610Z,100604.69
2023-02-24T01:15:20.369Z,100595.16
2023-02-24T01:17:47.933Z,100593.03
2023-02-24T01:20:18.761Z,100590.19
2023-02-24T01:22:48.783Z,100591.06
2023-02-24T01:25:16.421Z,100587.28
2023-02-24T01:27:45.382Z,100577.03
2023-02-24T01:30:15.928Z,100578.44
2023-02-24T01:32:44.579Z,100582.84
2023-02-24T01:35:14.348Z,100579.53
2023-02-24T01:37:43.177Z,100571.63
2023-02-24T01:40:18.563Z,100565.91
2023-02-24T01:42:49.371Z,100554.59
2023-02-24T01:45:22.732Z,100543.78
2023-02-24T01:47:50.484Z,100538.50
2023-02-24T01:50:21.602Z,100543.09
2023-02-24T01:52:51.286Z,100538.47
2023-02-24T01:55:23.204Z,100535.19
2023-02-24T01:57:53.730Z,100534.44
2023-02-24T02:00:45.193Z,100527.09
2023-02-24T02:03:19.692Z,100528.09
2023-02-24T02:05:48.595Z,100519.56
2023-02-24T02:08:17.446Z,100519.50
2023-02-24T02:10:45.373Z,100501.97
2023-02-24T02:13:20.898Z,100509.09
2023-02-24T02:15:56.781Z,100504.88
2023-02-24T02:18:32.198Z,100502.25
2023-02-24T02:21:30.996Z,100497.63
2023-02-24T02:24:05.427Z,100489.69
2023-02-24T02:26:54.771Z,100481.84
2023-02-24T02:29:51.443Z,100478.03
2023-02-24T02:32:52.461Z,100477.09
2023-02-24T02:35:23.740Z,100479.28
2023-02-24T02:37:56.435Z,100483.09
2023-02-24T02:40:27.663Z,100480.97
2023-02-24T02:42:59.669Z,100474.63
2023-02-24T02:45:30.541Z,100463.94
2023-02-24T02:48:03.102Z,100457.47
2023-02-24T02:50:36.400Z,100461.69
2023-02-24T02:53:06.306Z,100455.59
2023-02-24T02:55:37.596Z,100452.06
2023-02-24T02:58:09.126Z,100448.19
2023-02-24T03:00:42.162Z,100437.84
2023-02-24T03:03:12.996Z,100445.13
2023-02-24T03:05:47.245Z,100432.56
2023-02-24T03:08:17.096Z,100420.66
2023-02-24T03:10:51.078Z,100419.63
2023-02-24T03:13:20.263Z,100417.28
2023-02-24T03:15:48.714Z,100408.66
2023-02-24T03:18:20.017Z,100412.47
2023-02-24T03:20:51.742Z,100407.16
2023-02-24T03:23:21.677Z,100397.00
2023-02-24T03:25:53.376Z,100398.16
2023-02-24T03:28:23.822Z,100389.72
2023-02-24T03:30:57.958Z,100389.03
2023-02-24T03:33:31.423Z,100384.38
2023-02-24T03:36:02.066Z,100381.91
2023-02-24T03:38:30.977Z,100375.94
2023-02-24T03:40:59.179Z,100371.09
2023-02-24T03:43:29.730Z,100370.44
2023-02-24T03:45:58.724Z,100365.41
2023-02-24T03:48:27.204Z,100359.53
2023-02-24T03:50:55.040Z,100349.47
2023-02-24T03:53:40.129Z,100350.63
2023-02-24T03:56:16.879Z,100349.09
2023-02-24T03:58:54.864Z,100349.97
2023-02-24T04:01:27.913Z,100356.06
2023-02-24T04:04:01.905Z,100351.59
2023-02-24T04:06:35.392Z,100344.00
2023-02-24T04:09:08.971Z,100337.22
2023-02-24T04:11:42.778Z,100333.59
2023-02-24T04:14:14.026Z,100327.34
2023-02-24T04:16:45.781Z,100320.00
2023-02-24T04:19:16.537Z,100316.47
2023-02-24T04:21:45.520Z,100314.41
2023-02-24T04:24:16.100Z,100303.94
2023-02-24T04:26:44.714Z,100298.09
2023-02-24T04:29:17.735Z,100295.69
2023-02-24T04:31:47.041Z,100296.75
2023-02-24T04:34:20.119Z,100294.66
2023-02-24T04:36:49.568Z,100291.75
2023-02-24T04:39:20.184Z,100283.16
2023-02-24T04:41:49.423Z,100264.97
2023-02-24T04:44:18.868Z,100256.44
2023-02-24T04:46:46.991Z,100248.69
2023-02-24T04:49:15.018Z,100250.63
2023-02-24T04:51:43.386Z,100233.59
2023-02-24T04:54:11.214Z,100244.09
2023-02-24T04:56:42.589Z,100232.59
2023-02-24T04:59:10.382Z,100233.16
2023-02-24T05:01:40.861Z,100225.13
2023-02-24T05:04:09.004Z,100219.09
2023-02-24T05:06:40.692Z,100213.50
2023-02-24T05:09:14.199Z,100202.94
2023-02-24T05:11:49.124Z,100196.34
2023-02-24T05:14:18.480Z,100196.38
2023-02-24T05:16:47.765Z,100188.59
2023-02-24T05:19:34.407Z,100179.31
2023-02-24T05:22:03.401Z,100176.00
2023-02-24T05:24:32.111Z,100172.38
2023-02-24T05:27:03.566Z,100170.75
2023-02-24T05:29:36.172Z,100159.88
2023-02-24T05:32:05.789Z,100163.88
2023-02-24T05:34:34.482Z,100143.69
2023-02-24T05:37:07.472Z,100150.91
2023-02-24T05:39:35.012Z,100143.50
2023-02-24T05:42:07.104Z,100138.47
2023-02-24T05:44:36.246Z,100133.22
2023-02-24T05:47:08.334Z,100127.06
2023-02-24T05:49:38.902Z,100117.06
2023-02-24T05:52:09.527Z,100115.66
2023-02-24T05:54:40.410Z,100111.38
2023-02-24T05:57:11.983Z,100110.50
2023-02-24T05:59:40.023Z,100102.50
2023-02-24T06:02:12.137Z,100107.97
2023-02-24T06:04:46.536Z,100095.84
2023-02-24T06:07:19.449Z,100087.41
2023-02-24T06:09:50.462Z,100083.03
2023-02-24T06:12:20.378Z,100093.63
2023-02-24T06:14:48.001Z,100085.75
2023-02-24T06:17:17.134Z,100074.31
2023-02-24T06:19:45.083Z,100068.53
2023-02-24T06:22:14.586Z,100075.88
2023-02-24T06:24:44.366Z,100066.63
2023-02-24T06:27:17.512Z,100062.22
2023-02-24T06:29:49.800Z,100060.78
2023-02-24T06:32:20.451Z,100057.22
2023-02-24T06:34:50.301Z,100056.94
2023-02-24T06:37:18.383Z,100056.56
2023-02-24T06:39:46.289Z,100048.13
2023-02-24T06:42:16.187Z,100042.56
2023-02-24T06:44:44.053Z,100036.22
2023-02-24T06:47:14.735Z,100046.63
2023-02-24T06:49:42.592Z,100033.94
2023-02-24T06:52:10.950Z,100030.44
2023-02-24T06:54:38.494Z,100031.00
2023-02-24T06:57:05.913Z,100024.28
2023-02-24T06:59:34.392Z,100011.69
2023-02-24T07:02:03.426Z,100011.38
2023-02-24T07:04:43.490Z,100017.25
2023-02-24T07:07:14.044Z,100005.84
2023-02-24T07:09:43.713Z,100023.94
2023-02-24T07:12:12.625Z,100009.06
2023-02-24T07:14:40.930Z,100003.66
2023-02-24T07:17:08.659Z,100001.34
2023-02-24T07:19:38.468Z,100003.72
2023-02-24T07:22:06.085Z,99993.00
2023-02-24T07:24:36.808Z,99991.97
2023-02-24T07:27:06.410Z,99993.16
2023-02-24T07:29:34.975Z,99990.63
2023-02-24T07:32:05.562Z,99978.38
2023-02-24T07:34:40.662Z,99974.03
2023-02-24T07:37:10.014Z,99973.63
2023-02-24T07:39:39.329Z,99973.25
2023-02-24T07:42:12.331Z,99967.22
2023-02-24T07:44:39.861Z,99956.84
2023-02-24T07:47:08.742Z,99958.91
2023-02-24T07:49:36.667Z,99954.66
2023-02-24T07:52:08.012Z,99952.31
2023-02-24T07:54:39.192Z,99945.38
2023-02-24T07:57:13.530Z,99951.56
2023-02-24T07:59:47.434Z,99940.59
2023-02-24T08:02:15.459Z,99943.47
2023-02-24T08:04:49.817Z,99924.31
2023-02-24T08:07:17.714Z,99926.22
2023-02-24T08:10:03.737Z,99919.97
2023-02-24T08:12:31.157Z,99912.91
2023-02-24T08:15:00.235Z,99907.66
2023-02-24T08:17:28.633Z,99902.19
2023-02-24T08:20:21.903Z,99906.91
2023-02-24T08:22:52.373Z,99905.25
2023-02-24T08:25:24.820Z,99892.31
2023-02-24T08:28:08.013Z,99895.19
2023-02-24T08:30:39.956Z,99892.31
2023-02-24T08:33:10.048Z,99891.22
2023-02-24T08:35:44.570Z,99888.03
2023-02-24T08:38:15.370Z,99884.81
2023-02-24T08:40:54.358Z,99872.72
2023-02-24T08:43:34.750Z,99866.84
2023-02-24T08:46:05.880Z,99862.63
2023-02-24T08:48:38.240Z,99857.84
2023-02-24T08:51:09.436Z,99855.25
2023-02-24T08:53:40.667Z,99845.91
2023-02-24T08:56:11.688Z,99835.16
2023-02-24T08:58:46.817Z,99835.16
2023-02-24T09:01:24.159Z,99828.81
2023-02-24T09:03:54.905Z,99830.44
2023-02-24T09:06:26.296Z,99818.47
2023-02-24T09:09:17.190Z,99814.75
2023-02-24T09:11:46.850Z,99797.88
2023-02-24T09:14:26.822Z,99793.19
2023-02-24T09:17:06.858Z,99785.06
2023-02-24T09:19:56.748Z,99780.94
2023-02-24T09:22:57.088Z,99770.63
2023-02-24T09:25:33.161Z,99749.97
2023-02-24T09:28:09.028Z,99754.38
2023-02-24T09:30:38.398Z,99743.38
2023-02-24T09:33:17.803Z,99742.59
2023-02-24T09:36:00.556Z,99744.41
2023-02-24T09:38:57.870Z,99736.94
2023-02-24T09:41:33.672Z,99741.34
2023-02-24T09:44:07.478Z,99723.94
2023-02-24T09:46:40.326Z,99734.28
2023-02-24T09:49:17.277Z,99734.28
2023-02-24T09:51:45.137Z,99730.06
2023-02-24T09:54:15.711Z,99730.56
2023-02-24T09:56:50.184Z,99722.75
2023-02-24T09:59:26.295Z,99711.47
2023-02-24T10:02:02.204Z,99715.09
2023-02-24T10:04:49.176Z,99711.91
2023-02-24T10:07:18.387Z,99706.53
2023-02-24T10:09:50.609Z,99687.84
2023-02-24T10:12:24.099Z,99693.44
2023-02-24T10:15:16.487Z,99697.03
2023-02-24T10:17:48.280Z,99678.59
2023-02-24T10:20:30.977Z,99677.75
2023-02-24T10:23:02.673Z,99687.41
2023-02-24T10:25:41.585Z,99673.34
2023-02-24T10:28:20.142Z,99681.53
2023-02-24T10:31:03.736Z,99674.38
2023-02-24T10:33:38.806Z,99678.88
2023-02-24T10:36:09.318Z,99670.94
2023-02-24T10:38:38.076Z,99679.16
2023-02-24T10:41:07.188Z,99659.59
2023-02-24T10:43:45.438Z,99669.75
2023-02-24T10:46:39.980Z,99657.06
2023-02-24T10:49:11.815Z,99641.69
2023-02-24T10:51:41.347Z,99642.72
2023-02-24T10:54:30.599Z,99632.13
2023-02-24T10:57:07.900Z,99620.66
2023-02-24T10:59:58.573Z,99621.09
2023-02-24T11:02:33.000Z,99615.06
2023-02-24T11:05:26.705Z,99612.41
2023-02-24T11:08:08.033Z,99606.44
2023-02-24T11:10:53.091Z,99598.91
2023-02-24T11:13:39.194Z,99607.41
2023-02-24T11:16:26.832Z,99593.47
2023-02-24T11:18:56.588Z,99587.13
2023-02-24T11:21:24.916Z,99578.81
2023-02-24T11:23:54.768Z,99587.28
2023-02-24T11:26:25.899Z,99575.66
2023-02-24T11:29:19.876Z,99577.97
2023-02-24T11:31:58.512Z,99570.59
2023-02-24T11:34:33.335Z,99557.28
2023-02-24T11:37:09.139Z,99563.88
2023-02-24T11:39:48.595Z,99569.53
2023-02-24T11:42:17.812Z,99554.88
2023-02-24T11:44:52.805Z,99552.44
2023-02-24T11:47:24.465Z,99547.78
2023-02-24T11:49:56.980Z,99542.59
2023-02-24T11:52:31.634Z,99531.50
2023-02-24T11:55:03.828Z,99533.66
2023-02-24T11:57:35.424Z,99525.00
2023-02-24T12:00:13.127Z,99526.50
2023-02-24T12:02:48.048Z,99514.38
2023-02-24T12:05:19.604Z,99502.78
2023-02-24T12:07:50.323Z,99503.28
2023-02-24T12:10:21.114Z,99504.22
2023-02-24T12:12:53.890Z,99490.66
2023-02-24T12:15:25.088Z,99496.66
2023-02-24T12:17:59.130Z,99494.22
2023-02-24T12:20:31.253Z,99485.31
2023-02-24T12:23:02.416Z,99475.94
2023-02-24T12:25:32.487Z,99474.00
2023-02-24T12:28:10.880Z,99469.00
2023-02-24T12:30:49.877Z,99470.06
2023-02-24T12:33:28.982Z,99465.84
2023-02-24T12:36:04.885Z,99456.13
2023-02-24T12:38:46.305Z,99450.03
2023-02-24T12:41:26.228Z,99457.09
2023-02-24T12:43:57.525Z,99452.97
2023-02-24T12:46:27.002Z,99454.22
2023-02-24T12:49:21.123Z,99454.78
2023-02-24T12:51:57.148Z,99443.56
2023-02-24T12:54:29.867Z,99439.63
2023-02-24T12:57:01.512Z,99430.50
2023-02-24T12:59:31.525Z,99428.38
2023-02-24T13:02:01.359Z,99425.03
2023-02-24T13:04:38.226Z,99423.78
2023-02-24T13:07:20.676Z,99418.44
2023-02-24T13:09:52.420Z,99411.97
2023-02-24T13:12:27.159Z,99414.88
2023-02-24T13:14:54.962Z,99404.81
2023-02-24T13:17:24.281Z,99402.56
2023-02-24T13:19:53.713Z,99401.25
2023-02-24T13:22:29.008Z,99394.09
2023-02-24T13:24:59.584Z,99389.53
2023-02-24T13:27:28.840Z,99384.97
2023-02-24T13:29:57.986Z,99387.00
2023-02-24T13:32:29.605Z,99386.09
2023-02-24T13:34:57.797Z,99378.81
2023-02-24T13:37:37.047Z,99380.78
2023-02-24T13:40:23.440Z,99374.25
2023-02-24T13:42:58.638Z,99368.16
2023-02-24T13:45:29.098Z,99378.81
2023-02-24T13:48:17.598Z,99358.94
2023-02-24T13:50:56.494Z,99351.84
2023-02-24T13:53:37.654Z,99341.75
2023-02-24T13:56:15.048Z,99347.38
2023-02-24T13:58:54.746Z,99341.34
2023-02-24T14:01:22.789Z,99345.06
2023-02-24T14:04:06.229Z,99332.22
2023-02-24T14:06:34.077Z,99330.53
2023-02-24T14:09:04.853Z,99321.84
2023-02-24T14:11:33.769Z,99322.06
2023-02-24T14:14:01.429Z,99307.63
2023-02-24T14:16:32.588Z,99314.63
2023-02-24T14:19:02.233Z,99310.13
2023-02-24T14:21:31.368Z,99304.97
2023-02-24T14:24:00.273Z,99311.59
2023-02-24T14:26:29.759Z,99299.47
2023-02-24T14:29:01.530Z,99287.63
2023-02-24T14:31:30.112Z,99283.03
2023-02-24T14:33:59.957Z,99286.88
2023-02-24T14:36:30.082Z,99291.81
2023-02-24T14:39:08.026Z,99275.66
2023-02-24T14:41:37.082Z,99285.09
2023-02-24T14:44:16.829Z,99271.78
2023-02-24T14:46:48.705Z,99271.09
2023-02-24T14:49:20.088Z,99266.84
2023-02-24T14:51:50.896Z,99278.16
2023-02-24T14:54:22.192Z,99264.03
2023-02-24T14:56:51.210Z,99272.50
2023-02-24T14:59:22.775Z,99265.31
2023-02-24T15:01:51.331Z,99262.97
2023-02-24T15:04:27.435Z,99253.44
2023-02-24T15:06:55.202Z,99247.00
2023-02-24T15:09:25.204Z,99249.19
2023-02-24T15:11:56.179Z,99247.72
2023-02-24T15:14:26.175Z,99251.28
2023-02-24T15:16:55.710Z,99239.75
2023-02-24T15:19:27.362Z,99241.50
2023-02-24T15:21:55.177Z,99241.41
2023-02-24T15:24:26.880Z,99243.81
2023-02-24T15:26:58.176Z,99229.53
2023-02-24T15:29:27.759Z,99240.41
2023-02-24T15:31:56.653Z,99232.94
2023-02-24T15:34:25.870Z,99226.00
2023-02-24T15:36:56.376Z,99219.09
2023-02-24T15:39:26.189Z,99210.69
2023-02-24T15:42:07.684Z,99210.44
2023-02-24T15:44:37.095Z,99204.22
2023-02-24T15:47:20.793Z,99204.97
2023-02-24T15:49:48.330Z,99193.94
2023-02-24T15:52:16.826Z,99187.22
2023-02-24T15:54:44.298Z,99197.53
2023-02-24T15:57:17.893Z,99189.78
2023-02-24T15:59:45.876Z,99185.03
2023-02-24T16:02:15.955Z,99185.56
2023-02-24T16:04:43.335Z,99191.97
2023-02-24T16:07:12.574Z,99184.78
2023-02-24T16:09:41.239Z,99183.47
2023-02-24T16:12:12.045Z,99177.41
2023-02-24T16:14:41.174Z,99181.53
2023-02-24T16:17:10.744Z,99180.88
2023-02-24T16:19:38.540Z,99186.81
2023-02-24T16:22:06.064Z,99179.31
2023-02-24T16:24:33.627Z,99180.66
2023-02-24T16:27:01.201Z,99175.34
2023-02-24T16:29:29.049Z,99170.81
2023-02-24T16:31:58.219Z,99170.00
2023-02-24T16:34:26.037Z,99168.78
2023-02-24T16:36:53.703Z,99160.97
2023-02-24T16:39:21.597Z,99165.25
2023-02-24T16:41:49.504Z,99165.78
2023-02-24T16:44:17.354Z,99164.00
2023-02-24T16:46:47.812Z,99173.78
2023-02-24T16:49:19.972Z,99158.19
2023-02-24T16:51:47.671Z,99167.47
2023-02-24T16:54:15.735Z,99166.59
2023-02-24T16:56:43.171Z,99170.16
2023-02-24T16:59:10.599Z,99160.50
2023-02-24T17:01:38.233Z,99180.88
2023-02-24T17:04:09.588Z,99180.41
2023-02-24T17:06:38.463Z,99178.94
2023-02-24T17:09:05.851Z,99177.28
2023-02-24T17:11:34.160Z,99153.81
2023-02-24T17:14:03.099Z,99174.22
2023-02-24T17:16:30.614Z,99174.84
2023-02-24T17:18:58.263Z,99167.66
2023-02-24T17:21:25.847Z,99172.47
2023-02-24T17:23:54.756Z,99167.25
2023-02-24T17:26:22.575Z,99174.47
2023-02-24T17:28:50.175Z,99179.22
2023-02-24T17:31:17.708Z,99174.13
2023-02-24T17:33:45.209Z,99175.53
2023-02-24T17:36:12.789Z,99179.06
2023-02-24T17:38:40.414Z,99182.66
2023-02-24T17:41:10.900Z,99178.81
2023-02-24T17:43:38.531Z,99165.50
2023-02-24T17:46:07.429Z,99181.19
2023-02-24T17:48:35.212Z,99178.22
2023-02-24T17:51:03.066Z,99181.28
2023-02-24T17:53:31.171Z,99181.19
2023-02-24T17:56:04.074Z,99173.78
2023-02-24T17:58:34.042Z,99168.09
2023-02-24T18:01:02.767Z,99170.28
2023-02-24T18:03:31.159Z,99175.59
2023-02-24T18:06:00.526Z,99173.28
2023-02-24T18:08:28.182Z,99178.81
2023-02-24T18:10:56.674Z,99159.16
2023-02-24T18:13:24.340Z,99169.41
2023-02-24T18:15:53.459Z,99163.25
2023-02-24T18:18:21.442Z,99165.84
2023-02-24T18:20:49.066Z,99159.78
2023-02-24T18:23:16.679Z,99155.31
2023-02-24T18:25:44.671Z,99152.47
2023-02-24T18:28:12.299Z,99151.44
2023-02-24T18:30:40.917Z,99154.72
2023-02-24T18:33:10.215Z,99153.28
2023-02-24T18:35:38.908Z,99142.09
2023-02-24T18:38:06.625Z,99154.34
2023-02-24T18:40:34.248Z,99149.56
2023-02-24T18:43:01.853Z,99149.31
2023-02-24T18:45:29.548Z,99155.19
2023-02-24T18:47:57.169Z,99153.72
2023-02-24T18:50:26.231Z,99161.03
2023-02-24T18:52:54.664Z,99148.78
2023-02-24T18:55:22.783Z,99157.19
2023-02-24T18:57:50.349Z,99152.69
2023-02-24T19:00:19.067Z,99148.97
2023-02-24T19:02:47.597Z,99148.19
2023-02-24T19:05:37.905Z,99141.06
2023-02-24T19:08:07.950Z,99148.13
2023-02-24T19:10:40.417Z,99147.13
2023-02-24T19:13:08.426Z,99146.59
2023-02-24T19:15:36.457Z,99149.25
2023-02-24T19:18:04.975Z,99153.16
2023-02-24T19:20:34.913Z,99147.91
2023-02-24T19:23:05.764Z,99152.16
2023-02-24T19:25:36.959Z,99150.25
2023-02-24T19:28:05.107Z,99147.53
2023-02-24T19:31:41.556Z,99153.72
2023-02-24T19:34:13.016Z,99152.22
2023-02-24T19:36:41.103Z,99160.09
2023-02-24T19:39:10.823Z,99162.59
2023-02-24T19:41:40.139Z,99160.84
2023-02-24T19:44:08.465Z,99157.66
2023-02-24T19:46:36.599Z,99155.13
2023-02-24T19:49:05.433Z,99162.09
2023-02-24T19:51:33.395Z,99159.78
2023-02-24T19:54:03.120Z,99160.22
2023-02-24T19:56:33.959Z,99157.53
2023-02-24T19:59:04.340Z,99159.03
2023-02-24T20:01:32.222Z,99160.78
2023-02-24T20:04:04.851Z,99154.03
2023-02-24T20:06:35.824Z,99160.41
2023-02-24T20:09:06.563Z,99142.81
2023-02-24T20:11:36.513Z,99142.63
2023-02-24T20:14:06.246Z,99153.59
2023-02-24T20:16:34.701Z,99149.00
2023-02-24T20:19:03.088Z,99144.47
2023-02-24T20:21:31.642Z,99157.19
2023-02-24T20:24:00.741Z,99154.53
2023-02-24T20:26:29.185Z,99154.94
2023-02-24T20:28:58.347Z,99153.16
2023-02-24T20:31:27.251Z,99146.88
2023-02-24T20:33:56.419Z,99162.81
2023-02-24T20:36:26.345Z,99159.78
2023-02-24T20:38:55.597Z,99159.22
2023-02-24T20:41:24.687Z,99159.50
2023-02-24T20:43:52.609Z,99155.81
2023-02-24T20:46:24.898Z,99157.66
2023-02-24T20:48:57.057Z,99174.06
2023-02-24T20:51:24.534Z,99156.38
2023-02-24T20:53:57.815Z,99164.94
2023-02-24T20:56:26.190Z,99162.59
2023-02-24T20:58:55.169Z,99157.66
2023-02-24T21:01:23.121Z,99157.56
2023-02-24T21:03:51.597Z,99153.53
2023-02-24T21:06:20.634Z,99153.47
2023-02-24T21:08:48.180Z,99156.19
2023-02-24T21:11:16.701Z,99149.31
2023-02-24T21:13:46.367Z,99163.69
2023-02-24T21:16:15.681Z,99165.78
2023-02-24T21:18:45.111Z,99149.50
2023-02-24T21:21:15.053Z,99151.91
2023-02-24T21:23:44.498Z,99137.91
2023-02-24T21:26:12.569Z,99163.94
2023-02-24T21:28:41.337Z,99152.03
2023-02-24T21:31:09.709Z,99151.81
2023-02-24T21:33:37.734Z,99157.91
2023-02-24T21:36:07.104Z,99148.72
2023-02-24T21:38:36.286Z,99149.81
2023-02-24T21:41:08.241Z,99167.72
2023-02-24T21:43:38.030Z,99161.03
2023-02-24T21:46:09.353Z,99157.78
2023-02-24T21:48:40.303Z,99152.84
2023-02-24T21:51:12.394Z,99156.78
2023-02-24T21:53:49.172Z,99153.53
2023-02-24T21:56:29.354Z,99166.34
2023-02-24T21:59:06.923Z,99166.66
2023-02-24T22:01:40.441Z,99183.34
2023-02-24T22:04:13.677Z,99175.22
2023-02-24T22:06:44.799Z,99179.44
2023-02-24T22:09:15.077Z,99178.09
2023-02-24T22:11:44.258Z,99162.75
2023-02-24T22:14:13.622Z,99184.19
2023-02-24T22:16:43.098Z,99181.16
2023-02-24T22:19:13.142Z,99176.69
2023-02-24T22:21:43.031Z,99179.63
2023-02-24T22:24:13.867Z,99191.47
2023-02-24T22:30:17.146Z,99197.22
2023-02-24T22:45:29.428Z,99206.94
2023-02-24T22:47:59.696Z,99199.97
2023-02-24T22:50:27.676Z,99199.19
2023-02-24T22:52:59.132Z,99209.75
2023-02-24T22:58:22.672Z,99213.53
2023-02-24T23:00:54.785Z,99213.75
2023-02-24T23:03:27.790Z,99209.56
2023-02-24T23:05:56.383Z,99216.09
2023-02-24T23:08:27.215Z,99226.88
2023-02-24T23:10:55.940Z,99212.88
2023-02-24T23:13:24.173Z,99219.00
2023-02-24T23:15:56.726Z,99219.97
2023-02-24T23:18:26.018Z,99217.94
2023-02-24T23:26:44.905Z,99233.91
2023-02-24T23:38:42.283Z,99248.06
2023-02-24T23:41:11.460Z,99255.97
2023-02-24T23:43:39.238Z,99266.97
2023-02-24T23:46:09.400Z,99267.47
2023-02-24T23:48:37.498Z,99252.78
2023-02-24T23:51:09.484Z,99268.13
2023-02-24T23:53:40.027Z,99258.91
2023-02-24T23:56:11.277Z,99270.38
2023-02-24T23:58:38.862Z,99270.38
